Flight Track Log - Related Links

Times and Time Zones

All times are in EDT time to prevent confusion due to time zone crossing. See the AAL832 flight status page for this flight to view local times or setup timezone preferences in your user account.


Time Position Orientation Groundspeed Altitude Reporting Facility
EDT Latitude Longitude Course Direction KTS MPH feet Rate Location/Type
Wed 12:41:14 PM 33.9210 -118.4990 246° West 232 267 2,400  Level FlightAware ADS-B
Wed 12:41:37 PM 33.9100 -118.5280 245° Southwest 255 293 3,100 2,400 Climbing FlightAware ADS-B
Wed 12:41:59 PM 33.8980 -118.5590 245° Southwest 269 310 4,200 3,000 Climbing FlightAware ADS-B
Wed 12:42:07 PM 33.8940 -118.5680 242° Southwest 266 306 4,600 3,391 Climbing FlightAware ADS-B
Wed 12:42:22 PM 33.8820 -118.5830 226° Southwest 266 306 5,500 3,600 Climbing FlightAware ADS-B
Wed 12:42:37 PM 33.8620 -118.5910 198° South 276 318 6,400 3,000 Climbing FlightAware ADS-B
Wed 12:43:04 PM 33.8280 -118.5770 161° South 297 342 7,600 2,318 Climbing FlightAware ADS-B
Wed 12:43:21 PM 33.8150 -118.5570 128° Southeast 305 351 8,100 2,250 Climbing FlightAware ADS-B
Wed 12:43:36 PM 33.8100 -118.5340 105° East 304 350 8,800 3,000 Climbing FlightAware ADS-B
Wed 12:44:01 PM 33.8230 -118.4930 69° East 298 343 10,100 2,914 Climbing FlightAware ADS-B
Wed 12:44:11 PM 33.8340 -118.4810 42° Northeast 299 344 10,500 1,800 Climbing FlightAware ADS-B
Wed 12:44:31 PM 33.8600 -118.4670 24° Northeast 312 359 11,000 1,900 Climbing FlightAware ADS-B
Wed 12:45:11 PM 33.9150 -118.4400 22° Northeast 342 394 12,400 875 Climbing FlightAware ADS-B
Wed 12:46:07 PM 33.9820 -118.3990 27° Northeast 342 394 12,400 441 Level FlightAware ADS-B
Wed 12:46:19 PM 33.9390 -118.4190 201° Southwest 361 415 12,900 3,600 Climbing FlightAware ADS-B
Wed 12:47:02 PM 34.0310 -118.2600 55° Northeast 408 470 15,700 3,034 Climbing FlightAware ADS-B
Wed 12:47:48 PM 34.0880 -118.1600 55° Northeast 424 488 17,400 2,093 Climbing FlightAware ADS-B
Wed 12:48:28 PM 34.1320 -118.0820 56° Northeast 434 499 18,700 1,902 Climbing FlightAware ADS-B
Wed 12:49:10 PM 34.1780 -118.0000 56° Northeast 444 511 20,000 1,857 Climbing FlightAware ADS-B
Wed 12:49:52 PM 34.2290 -117.9100 56° Northeast 455 524 21,300 1,857 Climbing FlightAware ADS-B
Wed 12:50:34 PM 34.2800 -117.8180 56° Northeast 464 534 22,600 1,317 Climbing FlightAware ADS-B
Wed 12:51:14 PM 34.2990 -117.7840 56° Northeast 466 536 23,100 1,750 Climbing FlightAware ADS-B
Wed 12:52:10 PM 34.4010 -117.6170 53° Northeast 477 549 25,400 2,106 Climbing FlightAware ADS-B
Wed 12:52:48 PM 34.4570 -117.5390 49° Northeast 484 557 26,400 1,429 Climbing FlightAware ADS-B
Wed 12:53:34 PM 34.5250 -117.4430 49° Northeast 495 570 27,400 1,227 Climbing FlightAware ADS-B
Wed 12:54:16 PM 34.5890 -117.3520 49° Northeast 503 579 28,200 923 Climbing FlightAware ADS-B
Wed 12:55:05 PM 34.6320 -117.2900 50° Northeast 507 583 28,800 1,405 Climbing FlightAware ADS-B
Wed 12:56:07 PM 34.7570 -117.1110 50° Northeast 508 585 30,800 1,782 Climbing FlightAware ADS-B
Wed 12:56:46 PM 34.8160 -117.0260 50° Northeast 506 582 31,800 1,367 Climbing FlightAware ADS-B
Wed 12:57:26 PM 34.8770 -116.9380 50° Northeast 508 585 32,600 795 Climbing FlightAware ADS-B
Wed 12:58:09 PM 34.9350 -116.8560 49° Northeast 508 585 32,900 222 Climbing FlightAware ADS-B
Wed 12:58:47 PM 34.9850 -116.7860 49° Northeast 508 585 32,900  Level FlightAware ADS-B
Wed 12:59:24 PM 35.0340 -116.7180 49° Northeast 508 585 32,900 1,926 Level FlightAware ADS-B
Wed 01:00:08 PM 35.1210 -116.5860 51° Northeast 509 586 35,500 2,059 Climbing FlightAware ADS-B
Wed 01:01:06 PM 35.2110 -116.4550 50° Northeast 509 586 36,400 900 Climbing FlightAware ADS-B
Wed 01:01:48 PM 35.2720 -116.3650 50° Northeast 509 586 37,000 409 Climbing FlightAware ADS-B
Wed 01:02:34 PM 35.3350 -116.2720 50° Northeast 509 586 37,000  Level FlightAware ADS-B
Wed 01:03:08 PM 35.3790 -116.2090 49° Northeast 509 586 37,000  Level FlightAware ADS-B
Wed 01:03:50 PM 35.4570 -116.0940 50° Northeast 504 580 37,000  Level FlightAware ADS-B
Wed 01:04:37 PM 35.5260 -115.9940 50° Northeast 506 582 37,000  Level FlightAware ADS-B
Wed 01:05:16 PM 35.5840 -115.9060 51° Northeast 509 586 37,000  Level FlightAware ADS-B
Wed 01:05:57 PM 35.6440 -115.8160 51° Northeast 510 587 37,000  Level FlightAware ADS-B
Wed 01:06:42 PM 35.7140 -115.7110 51° Northeast 510 587 37,000  Level FlightAware ADS-B
Wed 01:07:26 PM 35.7800 -115.6130 50° Northeast 510 587 37,000  Level FlightAware ADS-B
Wed 01:08:08 PM 35.8420 -115.5190 51° Northeast 509 586 37,000  Level FlightAware ADS-B
Wed 01:08:50 PM 35.9050 -115.4240 51° Northeast 510 587 37,000  Level FlightAware ADS-B
Wed 01:09:31 PM 35.9660 -115.3340 50° Northeast 513 590 37,000  Level FlightAware ADS-B
Wed 01:10:04 PM 36.0160 -115.2580 51° Northeast 515 593 37,000  Level FlightAware ADS-B
Wed 01:10:57 PM 36.0780 -115.1510 54° Northeast 522 601 37,000  Level FlightAware ADS-B
Wed 01:11:52 PM 36.1100 -115.0640 65° Northeast 529 609 37,000  Level FlightAware ADS-B
Wed 01:12:36 PM 36.1760 -114.8490 69° East 530 610 37,000  Level FlightAware ADS-B
Wed 01:13:18 PM 36.2120 -114.7320 69° East 529 609 37,000  Level FlightAware ADS-B
Wed 01:13:52 PM 36.2410 -114.6340 70° East 525 604 37,000  Level FlightAware ADS-B
Wed 01:14:34 PM 36.2760 -114.5170 70° East 527 606 37,000  Level FlightAware ADS-B
Wed 01:15:24 PM 36.3190 -114.3740 69° East 529 609 37,000  Level FlightAware ADS-B
Wed 01:15:55 PM 36.3450 -114.2870 70° East 529 609 37,000  Level FlightAware ADS-B
Wed 01:16:24 PM 36.3700 -114.2040 69° East 526 605 37,000  Level FlightAware ADS-B
Wed 01:17:07 PM 36.4050 -114.0850 70° East 527 606 37,000  Level FlightAware ADS-B
Wed 01:17:48 PM 36.4400 -113.9660 70° East 526 605 37,000  Level FlightAware ADS-B
Wed 01:18:28 PM 36.4740 -113.8520 70° East 523 602 37,000  Level FlightAware ADS-B
Wed 01:19:12 PM 36.5090 -113.7320 70° East 520 598 37,000  Level FlightAware ADS-B
Wed 01:19:56 PM 36.5460 -113.6080 70° East 517 595 37,000  Level FlightAware ADS-B
Wed 01:20:32 PM 36.5760 -113.5040 70° East 517 595 37,000  Level FlightAware ADS-B
Wed 01:21:20 PM 36.6150 -113.3700 70° East 517 595 37,000  Level FlightAware ADS-B
Wed 01:22:02 PM 36.6470 -113.2590 70° East 518 596 37,000  Level FlightAware ADS-B
Wed 01:22:42 PM 36.6800 -113.1420 71° East 517 595 37,000  Level FlightAware ADS-B
Wed 01:23:27 PM 36.7160 -113.0180 70° East 519 597 37,000  Level FlightAware ADS-B
Wed 01:24:02 PM 36.7440 -112.9180 71° East 516 594 37,000  Level FlightAware ADS-B
Wed 01:24:50 PM 36.7820 -112.7860 70° East 518 596 37,000  Level FlightAware ADS-B
Wed 01:25:30 PM 36.8130 -112.6730 71° East 515 593 37,000  Level FlightAware ADS-B
Wed 01:26:06 PM 36.8420 -112.5730 70° East 516 594 37,000  Level FlightAware ADS-B
Wed 01:26:55 PM 36.8810 -112.4330 71° East 516 594 37,000  Level FlightAware ADS-B
Wed 01:27:37 PM 36.9130 -112.3160 71° East 511 588 37,000  Level FlightAware ADS-B
Wed 01:28:21 PM 36.9480 -112.1920 71° East 510 587 37,000  Level FlightAware ADS-B
Wed 01:29:01 PM 36.9780 -112.0820 71° East 508 585 37,000  Level FlightAware ADS-B
Wed 01:29:43 PM 37.0100 -111.9650 71° East 508 585 37,000  Level FlightAware ADS-B
Wed 01:30:22 PM 37.0380 -111.8570 72° East 507 583 37,000  Level FlightAware ADS-B
Wed 01:31:02 PM 37.0610 -111.7700 72° East 505 581 37,000  Level FlightAware ADS-B
Wed 01:31:49 PM 37.0990 -111.6180 73° East 503 579 37,000  Level FlightAware ADS-B
Wed 01:32:30 PM 37.1290 -111.5010 72° East 508 585 37,000  Level FlightAware ADS-B
Wed 01:33:11 PM 37.1590 -111.3840 72° East 508 585 37,000  Level FlightAware ADS-B
Wed 01:33:54 PM 37.1890 -111.2660 72° East 509 586 37,000  Level FlightAware ADS-B
Wed 01:34:37 PM 37.2190 -111.1460 73° East 511 588 37,000  Level FlightAware ADS-B
Wed 01:36:16 PM 37.2810 -110.9060 72° East 511 588 37,000  Level FlightAware ADS-B
Wed 01:37:12 PM 37.3160 -110.7720 72° East 511 588 37,000  Level FlightAware ADS-B
Wed 01:37:47 PM 37.3380 -110.6880 72° East 511 588 37,000  Level FlightAware ADS-B
Wed 01:38:35 PM 37.3670 -110.5720 73° East 511 588 37,000  Level FlightAware ADS-B
Wed 01:39:13 PM 37.3910 -110.4810 72° East 511 588 37,000  Level FlightAware ADS-B
Wed 01:40:02 PM 37.4450 -110.2280 75° East 505 581 37,000  Level FlightAware ADS-B
Wed 01:40:35 PM 37.4670 -110.1380 73° East 504 580 37,000  Level FlightAware ADS-B
Wed 01:41:18 PM 37.4960 -110.0160 73° East 505 581 37,000  Level FlightAware ADS-B
Wed 01:41:58 PM 37.5250 -109.9040 72° East 508 585 37,000  Level FlightAware ADS-B
Wed 01:42:37 PM 37.5560 -109.7930 71° East 506 582 37,000  Level FlightAware ADS-B
Wed 01:43:21 PM 37.5880 -109.6740 71° East 506 582 37,000  Level FlightAware ADS-B
Wed 01:44:05 PM 37.6210 -109.5520 71° East 506 582 37,000  Level FlightAware ADS-B
Wed 01:44:44 PM 37.6500 -109.4420 72° East 504 580 37,000  Level FlightAware ADS-B
Wed 01:45:27 PM 37.6810 -109.3230 72° East 502 578 37,000  Level FlightAware ADS-B
Wed 01:46:10 PM 37.7130 -109.2010 72° East 501 577 37,000  Level FlightAware ADS-B
Wed 01:47:05 PM 37.7420 -109.0920 71° East 500 575 37,000  Level FlightAware ADS-B
Wed 01:47:46 PM 37.7830 -108.9360 72° East 500 575 37,000  Level FlightAware ADS-B
Wed 01:48:33 PM 37.8150 -108.8100 72° East 498 573 37,000  Level FlightAware ADS-B
Wed 01:49:14 PM 37.8460 -108.6930 71° East 498 573 37,000  Level FlightAware ADS-B
Wed 01:49:55 PM 37.8740 -108.5810 72° East 498 573 37,000  Level FlightAware ADS-B
Wed 01:50:30 PM 37.8990 -108.4830 72° East 496 571 37,000  Level FlightAware ADS-B
Wed 01:51:08 PM 37.9260 -108.3780 72° East 494 568 37,000  Level FlightAware ADS-B
Wed 01:51:54 PM 37.9580 -108.2500 72° East 493 567 37,000  Level FlightAware ADS-B
Wed 01:52:34 PM 37.9850 -108.1430 72° East 492 566 37,000  Level FlightAware ADS-B
Wed 01:53:19 PM 38.0160 -108.0190 72° East 495 570 37,000  Level FlightAware ADS-B
Wed 01:53:59 PM 38.0430 -107.9090 73° East 492 566 37,000  Level FlightAware ADS-B
Wed 01:54:38 PM 38.0700 -107.8000 73° East 491 565 37,000  Level FlightAware ADS-B
Wed 01:56:21 PM 38.1270 -107.5700 72° East 488 562 37,000  Level FlightAware ADS-B
Wed 01:57:04 PM 38.1690 -107.4000 73° East 489 563 37,000  Level FlightAware ADS-B
Wed 01:57:42 PM 38.1940 -107.2930 73° East 489 563 37,000  Level FlightAware ADS-B
Wed 01:58:24 PM 38.2220 -107.1810 72° East 486 559 37,000  Level FlightAware ADS-B
Wed 01:59:09 PM 38.2510 -107.0590 73° East 484 557 37,000  Level FlightAware ADS-B
Wed 01:59:45 PM 38.2740 -106.9630 73° East 484 557 37,000  Level FlightAware ADS-B
Wed 02:00:21 PM 38.2987 -106.8610 73° East 482 555 37,000  Level FlightAware ADS-B
Wed 02:00:52 PM 38.3186 -106.7760 73° East 482 555 37,000  Level FlightAware ADS-B
Wed 02:01:22 PM 38.3383 -106.6940 73° East 483 556 37,000  Level FlightAware ADS-B
Wed 02:01:55 PM 38.3590 -106.6060 73° East 482 555 37,000  Level FlightAware ADS-B
Wed 02:02:29 PM 38.3807 -106.5140 73° East 482 555 37,000  Level FlightAware ADS-B
Wed 02:03:01 PM 38.4013 -106.4260 73° East 483 556 37,000  Level FlightAware ADS-B
Wed 02:03:31 PM 38.4205 -106.3440 73° East 477 549 37,000  Level FlightAware ADS-B
Wed 02:04:02 PM 38.4395 -106.2620 73° East 473 544 37,000  Level FlightAware ADS-B
Wed 02:04:42 PM 38.4643 -106.1540 74° East 471 542 37,000  Level FlightAware ADS-B
Wed 02:05:14 PM 38.4839 -106.0700 73° East 468 539 37,000  Level FlightAware ADS-B
Wed 02:05:42 PM 38.4999 -105.9970 74° East 465 535 37,000  Level FlightAware ADS-B
Wed 02:06:14 PM 38.5123 -105.9120 79° East 463 533 37,000  Level FlightAware ADS-B
Wed 02:06:44 PM 38.5238 -105.8310 80° East 462 532 37,000  Level FlightAware ADS-B
Wed 02:07:15 PM 38.5356 -105.7480 80° East 462 532 37,000  Level FlightAware ADS-B
Wed 02:07:45 PM 38.5470 -105.6670 80° East 464 534 37,000  Level FlightAware ADS-B
Wed 02:08:15 PM 38.5584 -105.5860 80° East 467 537 37,000  Level FlightAware ADS-B
Wed 02:08:45 PM 38.5700 -105.5030 80° East 467 537 37,000  Level FlightAware ADS-B
Wed 02:09:15 PM 38.5812 -105.4220 80° East 465 535 37,000  Level FlightAware ADS-B
Wed 02:09:46 PM 38.5924 -105.3400 80° East 467 537 37,000  Level FlightAware ADS-B
Wed 02:10:16 PM 38.6035 -105.2580 80° East 469 540 37,000  Level FlightAware ADS-B
Wed 02:10:46 PM 38.6146 -105.1760 80° East 470 541 37,000  Level FlightAware ADS-B
Wed 02:11:18 PM 38.6264 -105.0900 80° East 467 537 37,000  Level FlightAware ADS-B
Wed 02:11:48 PM 38.6376 -105.0070 80° East 469 540 37,000  Level FlightAware ADS-B
Wed 02:12:18 PM 38.6485 -104.9250 80° East 468 539 37,000  Level FlightAware ADS-B
Wed 02:12:49 PM 38.6596 -104.8420 80° East 469 540 37,000  Level FlightAware ADS-B
Wed 02:13:23 PM 38.6718 -104.7500 80° East 469 540 37,000  Level FlightAware ADS-B
Wed 02:13:57 PM 38.6840 -104.6560 81° East 471 542 37,000  Level FlightAware ADS-B
Wed 02:14:29 PM 38.6952 -104.5700 81° East 471 542 37,000  Level FlightAware ADS-B
Wed 02:15:04 PM 38.7079 -104.4720 81° East 471 542 37,000  Level FlightAware ADS-B
Wed 02:15:34 PM 38.7187 -104.3890 81° East 473 544 37,000  Level FlightAware ADS-B
Wed 02:16:06 PM 38.7300 -104.3020 81° East 474 545 37,000  Level FlightAware ADS-B
Wed 02:16:36 PM 38.7409 -104.2170 81° East 477 549 37,000  Level FlightAware ADS-B
Wed 02:17:07 PM 38.7515 -104.1330 81° East 478 550 37,000  Level FlightAware ADS-B
Wed 02:17:37 PM 38.7619 -104.0490 81° East 479 551 37,000  Level FlightAware ADS-B
Wed 02:18:07 PM 38.7725 -103.9640 81° East 478 550 37,000  Level FlightAware ADS-B
Wed 02:18:38 PM 38.7831 -103.8780 81° East 478 550 37,000  Level FlightAware ADS-B
Wed 02:19:08 PM 38.7935 -103.7940 81° East 479 551 37,000  Level FlightAware ADS-B
Wed 02:19:39 PM 38.8041 -103.7080 81° East 479 551 37,000  Level FlightAware ADS-B
Wed 02:20:09 PM 38.8146 -103.6230 81° East 479 551 37,000  Level FlightAware ADS-B
Wed 02:20:41 PM 38.8253 -103.5340 81° East 479 551 37,000  Level FlightAware ADS-B
Wed 02:21:12 PM 38.8356 -103.4480 81° East 479 551 37,000  Level FlightAware ADS-B
Wed 02:21:42 PM 38.8459 -103.3640 81° East 480 552 37,000  Level FlightAware ADS-B
Wed 02:22:12 PM 38.8559 -103.2790 81° East 481 554 37,000  Level FlightAware ADS-B
Wed 02:22:44 PM 38.8664 -103.1890 81° East 483 556 37,000  Level FlightAware ADS-B
Wed 02:23:15 PM 38.8768 -103.1010 81° East 486 559 37,000  Level FlightAware ADS-B
Wed 02:23:45 PM 38.8869 -103.0150 81° East 486 559 37,000  Level FlightAware ADS-B
Wed 02:24:17 PM 38.8973 -102.9240 82° East 488 562 37,000  Level FlightAware ADS-B
Wed 02:24:48 PM 38.9076 -102.8360 81° East 487 560 37,000  Level FlightAware ADS-B
Wed 02:24:52 PM 38.9090 -102.8230 82° East 488 562 37,000  Level FlightAware ADS-B
Wed 02:25:19 PM 38.9177 -102.7480 81° East 488 562 37,000  Level FlightAware ADS-B
Wed 02:25:25 PM 38.9197 -102.7300 82° East 488 562 37,000  Level FlightAware ADS-B
Wed 02:25:49 PM 38.9274 -102.6620 82° East 488 562 37,000  Level FlightAware ADS-B
Wed 02:26:03 PM 38.9317 -102.6230 82° East 488 562 37,000  Level FlightAware ADS-B
Wed 02:26:19 PM 38.9371 -102.5750 82° East 488 562 37,000  Level FlightAware ADS-B
Wed 02:26:50 PM 38.9469 -102.4880 82° East 487 560 37,000  Level FlightAware ADS-B
Wed 02:26:57 PM 38.9493 -102.4670 82° East 488 562 37,000  Level FlightAware ADS-B
Wed 02:27:20 PM 38.9566 -102.4000 82° East 488 562 37,000  Level FlightAware ADS-B
Wed 02:27:30 PM 38.9597 -102.3730 82° East 488 562 37,000  Level FlightAware ADS-B
Wed 02:27:51 PM 38.9663 -102.3130 82° East 488 562 37,000  Level FlightAware ADS-B
Wed 02:28:23 PM 38.9762 -102.2220 82° East 487 560 37,000  Level FlightAware ADS-B
Wed 02:28:59 PM 38.9875 -102.1180 82° East 488 562 37,000  Level FlightAware ADS-B
Wed 02:29:33 PM 38.9981 -102.0200 82° East 489 563 37,000  Level FlightAware ADS-B
Wed 02:29:34 PM 38.9983 -102.0170 85° East 489 563 37,000  Level FlightAware ADS-B
Wed 02:30:05 PM 39.0105 -101.9290 80° East 489 563 37,000  Level FlightAware ADS-B
Wed 02:30:07 PM 39.0110 -101.9250 81° East 489 563 37,000  Level FlightAware ADS-B
Wed 02:30:36 PM 39.0229 -101.8420 80° East 489 563 37,000  Level FlightAware ADS-B
Wed 02:30:40 PM 39.0244 -101.8310 80° East 489 563 37,000  Level FlightAware ADS-B
Wed 02:31:11 PM 39.0368 -101.7420 80° East 489 563 37,000  Level FlightAware ADS-B
Wed 02:31:41 PM 39.0488 -101.6560 80° East 489 563 37,000  Level FlightAware ADS-B
Wed 02:32:11 PM 39.0608 -101.5690 80° East 490 564 37,000  Level FlightAware ADS-B
Wed 02:32:46 PM 39.0746 -101.4710 80° East 491 565 37,000  Level FlightAware ADS-B
Wed 02:33:16 PM 39.0866 -101.3840 80° East 491 565 37,000 456 Level FlightAware ADS-B
Wed 02:34:05 PM 39.1058 -101.2430 80° East 490 564 37,600 698 Climbing FlightAware ADS-B
Wed 02:34:42 PM 39.1175 -101.1525 80° East 492 566 38,000 606 Climbing Denver Center
Wed 02:35:44 PM 39.1397 -100.9881 80° East 488 562 38,600 484 Climbing Denver Center
Wed 02:36:46 PM 39.1661 -100.7944 80° East 490 564 39,000 194 Climbing Denver Center
Wed 02:37:48 PM 39.1883 -100.6281 80° East 492 566 39,000  Level Denver Center
Wed 02:38:50 PM 39.2125 -100.4336 81° East 491 565 39,000  Level Denver Center
Wed 02:39:52 PM 39.2350 -100.2703 80° East 487 560 39,000  Level Denver Center
Wed 02:40:54 PM 39.2600 -100.0767 80° East 487 560 39,000  Level Denver Center
Wed 02:41:56 PM 39.2806 -99.9103 81° East 489 563 39,000  Level Denver Center
Wed 02:47:17 PM 39.3930 -98.9630 81° East 508 585 39,000  Level FlightAware ADS-B
Wed 02:47:54 PM 39.4040 -98.8690 81° East 508 585 39,000  Level FlightAware ADS-B
Wed 02:48:44 PM 39.4200 -98.7410 81° East 508 585 39,000  Level FlightAware ADS-B
Wed 02:49:18 PM 39.4310 -98.6540 81° East 508 585 39,000  Level FlightAware ADS-B
Wed 02:50:10 PM 39.4530 -98.4350 83° East 507 583 39,000  Level FlightAware ADS-B
Wed 02:50:57 PM 39.4680 -98.3150 81° East 507 583 39,000  Level FlightAware ADS-B
Wed 02:51:47 PM 39.4860 -98.1290 83° East 503 579 39,000  Level FlightAware ADS-B
Wed 02:52:37 PM 39.5030 -97.9810 81° East 504 580 39,000  Level FlightAware ADS-B
Wed 02:53:17 PM 39.5200 -97.8620 79° East 505 581 39,000  Level FlightAware ADS-B
Wed 02:53:59 PM 39.5370 -97.7390 80° East 506 582 39,000  Level FlightAware ADS-B
Wed 02:54:39 PM 39.5530 -97.6230 80° East 506 582 39,000  Level FlightAware ADS-B
Wed 02:55:17 PM 39.5700 -97.5050 79° East 507 583 39,000  Level FlightAware ADS-B
Wed 02:56:20 PM 39.5940 -97.3320 80° East 508 585 39,000  Level FlightAware ADS-B
Wed 02:56:54 PM 39.6100 -97.2150 80° East 510 587 39,000  Level FlightAware ADS-B
Wed 02:57:41 PM 39.6290 -97.0730 80° East 511 588 39,000  Level FlightAware ADS-B
Wed 02:58:22 PM 39.6450 -96.9510 80° East 511 588 39,000  Level FlightAware ADS-B
Wed 02:59:07 PM 39.6640 -96.8110 80° East 512 589 39,000  Level FlightAware ADS-B
Wed 02:59:47 PM 39.6790 -96.6970 80° East 511 588 39,000  Level FlightAware ADS-B
Wed 03:00:24 PM 39.6940 -96.5820 80° East 510 587 39,000  Level FlightAware ADS-B
Wed 03:01:27 PM 39.7170 -96.3980 81° East 508 585 39,000  Level FlightAware ADS-B
Wed 03:02:10 PM 39.7350 -96.2610 80° East 506 582 39,000  Level FlightAware ADS-B
Wed 03:02:45 PM 39.7490 -96.1560 80° East 505 581 39,000  Level FlightAware ADS-B
Wed 03:03:23 PM 39.7620 -96.0470 81° East 505 581 39,000  Level FlightAware ADS-B
Wed 03:03:55 PM 39.7750 -95.9470 80° East 505 581 39,000  Level FlightAware ADS-B
Wed 03:04:35 PM 39.7890 -95.8290 81° East 505 581 39,000  Level FlightAware ADS-B
Wed 03:05:15 PM 39.8040 -95.7080 81° East 506 582 39,000  Level FlightAware ADS-B
Wed 03:05:59 PM 39.8200 -95.5750 81° East 507 583 39,000  Level FlightAware ADS-B
Wed 03:06:44 PM 39.8360 -95.4420 81° East 508 585 39,000  Level FlightAware ADS-B
Wed 03:07:23 PM 39.8510 -95.3230 81° East 508 585 39,000  Level FlightAware ADS-B
Wed 03:08:05 PM 39.8650 -95.1990 82° East 508 585 39,000  Level FlightAware ADS-B
Wed 03:08:51 PM 39.8820 -95.0580 81° East 508 585 39,000  Level FlightAware ADS-B
Wed 03:09:31 PM 39.8950 -94.9390 82° East 507 583 39,000  Level FlightAware ADS-B
Wed 03:10:09 PM 39.9090 -94.8220 81° East 505 581 39,000  Level FlightAware ADS-B
Wed 03:10:51 PM 39.9230 -94.6970 82° East 502 578 39,000  Level FlightAware ADS-B
Wed 03:11:38 PM 39.9300 -94.6380 81° East 500 575 39,000  Level FlightAware ADS-B
Wed 03:12:01 PM 39.9460 -94.4890 82° East 498 573 39,000  Level FlightAware ADS-B
Wed 03:12:51 PM 39.9630 -94.3390 82° East 496 571 39,000  Level FlightAware ADS-B
Wed 03:13:31 PM 39.9760 -94.2240 82° East 493 567 39,000  Level FlightAware ADS-B
Wed 03:14:13 PM 39.9890 -94.1000 82° East 494 568 39,000  Level FlightAware ADS-B
Wed 03:14:55 PM 40.0030 -93.9760 82° East 494 568 39,000  Level FlightAware ADS-B
Wed 03:15:25 PM 40.0120 -93.8880 82° East 494 568 39,000  Level FlightAware ADS-B
Wed 03:16:07 PM 40.0240 -93.7660 83° East 496 571 39,000  Level FlightAware ADS-B
Wed 03:16:49 PM 40.0360 -93.6410 83° East 496 571 39,000  Level FlightAware ADS-B
Wed 03:17:33 PM 40.0490 -93.5080 83° East 497 572 39,000  Level FlightAware ADS-B
Wed 03:18:09 PM 40.0590 -93.4030 83° East 497 572 39,000  Level FlightAware ADS-B
Wed 03:18:57 PM 40.0730 -93.2600 83° East 497 572 39,000  Level FlightAware ADS-B
Wed 03:19:37 PM 40.0850 -93.1400 83° East 498 573 39,000  Level FlightAware ADS-B
Wed 03:20:21 PM 40.0970 -93.0120 83° East 498 573 39,000  Level FlightAware ADS-B
Wed 03:21:32 PM 40.1160 -92.8260 82° East 498 573 39,000 -167 Level FlightAware ADS-B
Wed 03:22:09 PM 40.1350 -92.6900 80° East 493 567 38,700 -723 Descending FlightAware ADS-B
Wed 03:22:55 PM 40.1760 -92.5640 67° East 497 572 38,000 -477 Descending FlightAware ADS-B
Wed 03:23:37 PM 40.2140 -92.4490 67° East 498 573 38,000  Level FlightAware ADS-B
Wed 03:24:36 PM 40.2630 -92.3030 66° East 498 573 38,000  Level FlightAware ADS-B
Wed 03:25:29 PM 40.3130 -92.1490 67° East 489 563 38,000  Level FlightAware ADS-B
Wed 03:26:26 PM 40.3600 -92.0090 66° East 488 562 38,000  Level FlightAware ADS-B
Wed 03:27:02 PM 40.3970 -91.8900 68° East 485 558 38,000 -75 Level FlightAware ADS-B
Wed 03:27:46 PM 40.4320 -91.7870 66° East 484 557 37,900 -1,768 Descending FlightAware ADS-B
Wed 03:28:37 PM 40.4800 -91.6330 68° East 491 565 35,200 -2,609 Descending FlightAware ADS-B
Wed 03:29:18 PM 40.5160 -91.5210 67° East 483 556 33,900 -1,808 Descending FlightAware ADS-B
Wed 03:29:50 PM 40.5440 -91.4320 67° East 479 551 33,000 -628 Descending FlightAware ADS-B
Wed 03:30:44 PM 40.5790 -91.3250 67° East 469 540 33,000  Level FlightAware ADS-B
Wed 03:31:18 PM 40.6200 -91.2090 65° Northeast 465 535 33,000  Level FlightAware ADS-B
Wed 03:31:57 PM 40.6560 -91.1060 65° Northeast 469 540 33,000  Level FlightAware ADS-B
Wed 03:32:34 PM 40.6880 -91.0110 66° East 469 540 33,000  Level FlightAware ADS-B
Wed 03:33:12 PM 40.7210 -90.9120 66° East 469 540 33,000  Level FlightAware ADS-B
Wed 03:34:02 PM 40.7660 -90.7820 65° Northeast 462 532 33,000  Level FlightAware ADS-B
Wed 03:34:44 PM 40.8020 -90.6740 66° East 465 535 33,000 -361 Level FlightAware ADS-B
Wed 03:35:25 PM 40.8380 -90.5650 66° East 459 528 32,500 -1,183 Descending FlightAware ADS-B
Wed 03:35:55 PM 40.8630 -90.4920 66° East 449 517 31,600 -1,859 Descending FlightAware ADS-B
Wed 03:36:36 PM 40.8970 -90.3900 66° East 436 502 30,300 -1,807 Descending FlightAware ADS-B
Wed 03:37:18 PM 40.9310 -90.2860 67° East 441 507 29,100 -1,595 Descending FlightAware ADS-B
Wed 03:37:55 PM 40.9610 -90.1950 66° East 442 509 28,200 -1,463 Descending FlightAware ADS-B
Wed 03:38:40 PM 40.9970 -90.0870 66° East 433 498 27,100 -1,467 Descending FlightAware ADS-B
Wed 03:39:25 PM 41.0330 -89.9770 67° East 440 506 26,000 -1,412 Descending FlightAware ADS-B
Wed 03:40:05 PM 41.0640 -89.8830 66° East 438 504 25,100 -1,157 Descending FlightAware ADS-B
Wed 03:40:48 PM 41.0990 -89.7740 67° East 434 499 24,400 -1,012 Descending FlightAware ADS-B
Wed 03:41:28 PM 41.1320 -89.6720 67° East 428 493 23,700 -1,521 Descending FlightAware ADS-B
Wed 03:41:59 PM 41.1570 -89.5980 66° East 430 495 22,600 -2,057 Descending FlightAware ADS-B
Wed 03:42:38 PM 41.1920 -89.5080 63° Northeast 429 494 21,300 -1,807 Descending FlightAware ADS-B
Wed 03:43:22 PM 41.2330 -89.4070 62° Northeast 416 479 20,100 -1,929 Descending FlightAware ADS-B
Wed 03:44:02 PM 41.2690 -89.3180 62° Northeast 407 468 18,600 -2,195 Descending FlightAware ADS-B
Wed 03:44:44 PM 41.3050 -89.2280 62° Northeast 402 463 17,100 -1,736 Descending FlightAware ADS-B
Wed 03:46:03 PM 41.3610 -89.0880 62° Northeast 388 447 15,100 -1,966 Descending FlightAware ADS-B
Wed 03:46:43 PM 41.4070 -88.9730 62° Northeast 381 438 13,200 -2,289 Descending FlightAware ADS-B
Wed 03:47:19 PM 41.4360 -88.9010 62° Northeast 373 429 12,200 -1,655 Descending FlightAware ADS-B
Wed 03:48:10 PM 41.4770 -88.7980 62° Northeast 361 415 10,800 -903 Descending FlightAware ADS-B
Wed 03:48:52 PM 41.5090 -88.7160 62° Northeast 354 407 10,800  Level FlightAware ADS-B
Wed 03:49:32 PM 41.5370 -88.6450 62° Northeast 310 357 10,800 -75 Level FlightAware ADS-B
Wed 03:50:12 PM 41.5620 -88.5760 64° Northeast 302 348 10,700 -786 Descending FlightAware ADS-B
Wed 03:50:56 PM 41.5870 -88.5020 66° East 299 344 9,700 -1,300 Descending FlightAware ADS-B
Wed 03:51:12 PM 41.5970 -88.4750 64° Northeast 297 342 9,400 -1,364 Descending FlightAware ADS-B
Wed 03:51:40 PM 41.6120 -88.4290 66° East 294 338 8,700 -1,500 Descending FlightAware ADS-B
Wed 03:52:08 PM 41.6280 -88.3820 66° East 291 335 8,000 -947 Descending FlightAware ADS-B
Wed 03:52:37 PM 41.6440 -88.3360 65° Northeast 290 334 7,800 -231 Descending FlightAware ADS-B
Wed 03:53:00 PM 41.6560 -88.2990 67° East 288 331 7,800  Level FlightAware ADS-B
Wed 03:53:30 PM 41.6730 -88.2480 66° East 290 334 7,800 -207 Level FlightAware ADS-B
Wed 03:53:58 PM 41.6930 -88.2060 57° Northeast 288 331 7,600 -960 Descending FlightAware ADS-B
Wed 03:54:20 PM 41.7150 -88.1800 41° Northeast 287 330 7,000 -1,535 Descending FlightAware ADS-B
Wed 03:54:41 PM 41.7360 -88.1570 39° Northeast 280 322 6,500 -955 Descending FlightAware ADS-B
Wed 03:55:04 PM 41.7570 -88.1320 42° Northeast 259 298 6,300 -514 Descending FlightAware ADS-B
Wed 03:55:16 PM 41.7670 -88.1190 44° Northeast 245 282 6,200 -732 Descending FlightAware ADS-B
Wed 03:55:45 PM 41.7900 -88.0930 40° Northeast 214 246 5,800 -1,050 Descending FlightAware ADS-B
Wed 03:55:56 PM 41.7990 -88.0820 42° Northeast 207 238 5,500 -1,297 Descending FlightAware ADS-B
Wed 03:56:22 PM 41.8160 -88.0620 41° Northeast 192 221 5,000 -1,448 Descending FlightAware ADS-B
Wed 03:56:54 PM 41.8360 -88.0370 43° Northeast 181 208 4,100 -1,600 Descending FlightAware ADS-B
Wed 03:57:07 PM 41.8440 -88.0290 37° Northeast 183 211 3,800 -1,400 Descending FlightAware ADS-B
Wed 03:57:24 PM 41.8550 -88.0160 41° Northeast 178 205 3,400 -1,467 Descending FlightAware ADS-B
Wed 03:57:52 PM 41.8720 -87.9950 43° Northeast 169 194 2,700 -1,385 Descending FlightAware ADS-B
Wed 03:58:16 PM 41.8860 -87.9780 42° Northeast 165 190 2,200 -1,038 Descending FlightAware ADS-B
Wed 03:58:44 PM 41.9020 -87.9600 40° Northeast 159 183 1,800 -828 Descending FlightAware ADS-B
Wed 03:59:14 PM 41.9180 -87.9420 40° Northeast 147 169 1,400 -778 Descending FlightAware ADS-B
Wed 03:59:38 PM 41.9300 -87.9270 43° Northeast 141 162 1,100 -698 Descending FlightAware ADS-B
Wed 03:59:57 PM 41.9400 -87.9150 42° Northeast 148 170 900 -800 Descending FlightAware ADS-B
Wed 04:00:23 PM 41.9530 -87.9000 41° Northeast 145 167 500 -923 Descending FlightAware ADS-B
Wed 04:01:03 PM 41.9630 -87.8880 42° Northeast 96 110 -750 Descending FlightAware ADS-B
Wed 04:01:34 PM 41.9690 -87.8800 45° Northeast 57 66  Level FlightAware ADS-B

Login

Don't have an account? Register now (free) for customized features, flight alerts, and more!